sensor_id;sensor_type;location;lat;lon;timestamp;pressure;altitude;pressure_sealevel;temperature
34807;BMP280;18310;55.586;12.286;2023-05-07T00:01:48;102711.03;;;10.98
34807;BMP280;18310;55.586;12.286;2023-05-07T00:04:51;102722.03;;;11.06
34807;BMP280;18310;55.586;12.286;2023-05-07T00:07:55;102716.28;;;11.08
34807;BMP280;18310;55.586;12.286;2023-05-07T00:11:20;102719.22;;;11.11
34807;BMP280;18310;55.586;12.286;2023-05-07T00:14:24;102703.88;;;11.15
34807;BMP280;18310;55.586;12.286;2023-05-07T00:17:27;102711.44;;;11.18
34807;BMP280;18310;55.586;12.286;2023-05-07T00:20:30;102702.63;;;11.21
34807;BMP280;18310;55.586;12.286;2023-05-07T00:23:36;102698.53;;;11.24
34807;BMP280;18310;55.586;12.286;2023-05-07T00:26:41;102696.09;;;11.22
34807;BMP280;18310;55.586;12.286;2023-05-07T00:29:44;102692.78;;;11.26
34807;BMP280;18310;55.586;12.286;2023-05-07T00:32:47;102689.00;;;11.21
34807;BMP280;18310;55.586;12.286;2023-05-07T00:35:50;102697.63;;;11.29
34807;BMP280;18310;55.586;12.286;2023-05-07T00:38:53;102704.34;;;11.31
34807;BMP280;18310;55.586;12.286;2023-05-07T00:41:58;102700.53;;;11.32
34807;BMP280;18310;55.586;12.286;2023-05-07T00:45:02;102698.09;;;11.31
34807;BMP280;18310;55.586;12.286;2023-05-07T00:48:06;102699.31;;;11.24
34807;BMP280;18310;55.586;12.286;2023-05-07T00:51:09;102697.19;;;11.21
34807;BMP280;18310;55.586;12.286;2023-05-07T00:54:13;102704.97;;;11.14
34807;BMP280;18310;55.586;12.286;2023-05-07T00:57:18;102703.59;;;11.17
34807;BMP280;18310;55.586;12.286;2023-05-07T01:00:22;102701.97;;;11.16
34807;BMP280;18310;55.586;12.286;2023-05-07T01:03:26;102705.78;;;11.15
34807;BMP280;18310;55.586;12.286;2023-05-07T01:06:32;102700.97;;;11.12
34807;BMP280;18310;55.586;12.286;2023-05-07T01:09:36;102700.16;;;11.11
34807;BMP280;18310;55.586;12.286;2023-05-07T01:12:41;102702.06;;;11.11
34807;BMP280;18310;55.586;12.286;2023-05-07T01:15:45;102705.31;;;11.13
34807;BMP280;18310;55.586;12.286;2023-05-07T01:18:48;102701.78;;;11.12
34807;BMP280;18310;55.586;12.286;2023-05-07T01:22:00;102704.97;;;11.14
34807;BMP280;18310;55.586;12.286;2023-05-07T01:25:06;102706.19;;;11.08
34807;BMP280;18310;55.586;12.286;2023-05-07T01:28:10;102696.22;;;11.04
34807;BMP280;18310;55.586;12.286;2023-05-07T01:31:13;102703.31;;;11.05
34807;BMP280;18310;55.586;12.286;2023-05-07T01:34:17;102702.94;;;11.06
34807;BMP280;18310;55.586;12.286;2023-05-07T01:37:21;102705.59;;;11.11
34807;BMP280;18310;55.586;12.286;2023-05-07T01:40:26;102706.84;;;11.05
34807;BMP280;18310;55.586;12.286;2023-05-07T01:43:30;102709.72;;;11.09
34807;BMP280;18310;55.586;12.286;2023-05-07T01:46:34;102697.72;;;11.10
34807;BMP280;18310;55.586;12.286;2023-05-07T01:49:37;102702.59;;;11.13
34807;BMP280;18310;55.586;12.286;2023-05-07T01:52:40;102702.59;;;11.13
34807;BMP280;18310;55.586;12.286;2023-05-07T01:55:45;102702.88;;;11.11
34807;BMP280;18310;55.586;12.286;2023-05-07T01:58:49;102702.66;;;11.08
34807;BMP280;18310;55.586;12.286;2023-05-07T02:01:52;102700.22;;;11.06
34807;BMP280;18310;55.586;12.286;2023-05-07T02:04:56;102700.88;;;11.03
34807;BMP280;18310;55.586;12.286;2023-05-07T02:07:59;102700.06;;;11.03
34807;BMP280;18310;55.586;12.286;2023-05-07T02:11:05;102706.91;;;11.00
34807;BMP280;18310;55.586;12.286;2023-05-07T02:14:08;102713.47;;;10.99
34807;BMP280;18310;55.586;12.286;2023-05-07T02:17:11;102717.28;;;10.98
34807;BMP280;18310;55.586;12.286;2023-05-07T02:20:14;102722.44;;;11.00
34807;BMP280;18310;55.586;12.286;2023-05-07T02:23:17;102710.25;;;10.97
34807;BMP280;18310;55.586;12.286;2023-05-07T02:26:22;102707.81;;;10.96
34807;BMP280;18310;55.586;12.286;2023-05-07T02:29:25;102704.38;;;10.90
34807;BMP280;18310;55.586;12.286;2023-05-07T02:32:28;102709.03;;;10.90
34807;BMP280;18310;55.586;12.286;2023-05-07T02:35:31;102711.03;;;10.84
34807;BMP280;18310;55.586;12.286;2023-05-07T02:38:34;102715.19;;;10.82
34807;BMP280;18310;55.586;12.286;2023-05-07T02:41:40;102712.47;;;10.82
34807;BMP280;18310;55.586;12.286;2023-05-07T02:44:43;102708.41;;;10.79
34807;BMP280;18310;55.586;12.286;2023-05-07T02:47:46;102710.03;;;10.80
34807;BMP280;18310;55.586;12.286;2023-05-07T02:50:49;102703.56;;;10.76
34807;BMP280;18310;55.586;12.286;2023-05-07T02:53:52;102691.25;;;10.65
34807;BMP280;18310;55.586;12.286;2023-05-07T02:56:57;102711.19;;;10.74
34807;BMP280;18310;55.586;12.286;2023-05-07T03:00:10;102700.31;;;10.74
34807;BMP280;18310;55.586;12.286;2023-05-07T03:03:14;102705.47;;;10.75
34807;BMP280;18310;55.586;12.286;2023-05-07T03:06:17;102704.66;;;10.75
34807;BMP280;18310;55.586;12.286;2023-05-07T03:09:20;102706.56;;;10.74
34807;BMP280;18310;55.586;12.286;2023-05-07T03:12:25;102698.41;;;10.74
34807;BMP280;18310;55.586;12.286;2023-05-07T03:15:28;102701.94;;;10.75
34807;BMP280;18310;55.586;12.286;2023-05-07T03:18:31;102701.44;;;10.73
34807;BMP280;18310;55.586;12.286;2023-05-07T03:21:34;102700.63;;;10.72
34807;BMP280;18310;55.586;12.286;2023-05-07T03:24:37;102699.81;;;10.72
34807;BMP280;18310;55.586;12.286;2023-05-07T03:27:41;102699.31;;;10.70
34807;BMP280;18310;55.586;12.286;2023-05-07T03:30:45;102696.09;;;10.68
34807;BMP280;18310;55.586;12.286;2023-05-07T03:33:51;102684.28;;;10.59
34807;BMP280;18310;55.586;12.286;2023-05-07T03:36:55;102703.97;;;10.69
34807;BMP280;18310;55.586;12.286;2023-05-07T03:39:58;102709.63;;;10.73
34807;BMP280;18310;55.586;12.286;2023-05-07T03:43:03;102705.97;;;10.77
34807;BMP280;18310;55.586;12.286;2023-05-07T03:46:06;102700.75;;;10.81
34807;BMP280;18310;55.586;12.286;2023-05-07T03:49:09;102700.13;;;10.84
34807;BMP280;18310;55.586;12.286;2023-05-07T03:52:12;102700.75;;;10.95
34807;BMP280;18310;55.586;12.286;2023-05-07T03:55:15;102705.00;;;11.01
34807;BMP280;18310;55.586;12.286;2023-05-07T03:58:20;102702.06;;;11.11
34807;BMP280;18310;55.586;12.286;2023-05-07T04:01:23;102702.78;;;11.16
34807;BMP280;18310;55.586;12.286;2023-05-07T04:04:26;102704.19;;;11.28
34807;BMP280;18310;55.586;12.286;2023-05-07T04:07:31;102704.88;;;11.33
34807;BMP280;18310;55.586;12.286;2023-05-07T04:10:34;102698.69;;;11.41
34807;BMP280;18310;55.586;12.286;2023-05-07T04:13:39;102701.59;;;11.45
34807;BMP280;18310;55.586;12.286;2023-05-07T04:16:42;102708.75;;;11.54
34807;BMP280;18310;55.586;12.286;2023-05-07T04:19:46;102711.88;;;11.61
34807;BMP280;18310;55.586;12.286;2023-05-07T04:22:49;102720.16;;;11.70
34807;BMP280;18310;55.586;12.286;2023-05-07T04:25:52;102710.03;;;11.71
34807;BMP280;18310;55.586;12.286;2023-05-07T04:28:57;102716.81;;;11.73
34807;BMP280;18310;55.586;12.286;2023-05-07T04:32:01;102722.94;;;11.79
34807;BMP280;18310;55.586;12.286;2023-05-07T04:35:05;102731.28;;;11.96
34807;BMP280;18310;55.586;12.286;2023-05-07T04:38:08;102727.63;;;12.23
34807;BMP280;18310;55.586;12.286;2023-05-07T04:41:12;102733.75;;;12.59
34807;BMP280;18310;55.586;12.286;2023-05-07T04:44:16;102726.38;;;12.99
34807;BMP280;18310;55.586;12.286;2023-05-07T04:47:20;102727.00;;;13.44
34807;BMP280;18310;55.586;12.286;2023-05-07T04:50:23;102737.44;;;13.85
34807;BMP280;18310;55.586;12.286;2023-05-07T04:53:26;102731.13;;;14.27
34807;BMP280;18310;55.586;12.286;2023-05-07T04:56:29;102732.41;;;14.68
34807;BMP280;18310;55.586;12.286;2023-05-07T04:59:34;102726.22;;;15.09
34807;BMP280;18310;55.586;12.286;2023-05-07T05:02:37;102731.81;;;15.62
34807;BMP280;18310;55.586;12.286;2023-05-07T05:05:40;102738.94;;;16.08
34807;BMP280;18310;55.586;12.286;2023-05-07T05:08:43;102741.16;;;16.39
34807;BMP280;18310;55.586;12.286;2023-05-07T05:11:46;102737.75;;;16.54
34807;BMP280;18310;55.586;12.286;2023-05-07T05:14:51;102740.06;;;16.76
34807;BMP280;18310;55.586;12.286;2023-05-07T05:17:54;102740.97;;;16.92
34807;BMP280;18310;55.586;12.286;2023-05-07T05:20:57;102745.84;;;17.11
34807;BMP280;18310;55.586;12.286;2023-05-07T05:24:00;102742.72;;;17.25
34807;BMP280;18310;55.586;12.286;2023-05-07T05:27:04;102739.47;;;17.47
34807;BMP280;18310;55.586;12.286;2023-05-07T05:30:30;102751.75;;;17.65
34807;BMP280;18310;55.586;12.286;2023-05-07T05:33:33;102759.19;;;17.77
34807;BMP280;18310;55.586;12.286;2023-05-07T05:36:36;102751.97;;;17.88
34807;BMP280;18310;55.586;12.286;2023-05-07T05:39:39;102745.38;;;18.05
34807;BMP280;18310;55.586;12.286;2023-05-07T05:42:43;102750.50;;;18.22
34807;BMP280;18310;55.586;12.286;2023-05-07T05:45:47;102751.88;;;18.43
34807;BMP280;18310;55.586;12.286;2023-05-07T05:48:50;102753.09;;;18.62
34807;BMP280;18310;55.586;12.286;2023-05-07T05:51:53;102757.06;;;18.80
34807;BMP280;18310;55.586;12.286;2023-05-07T05:54:57;102755.34;;;18.91
34807;BMP280;18310;55.586;12.286;2023-05-07T05:58:00;102751.00;;;19.09
34807;BMP280;18310;55.586;12.286;2023-05-07T06:01:05;102766.38;;;19.26
34807;BMP280;18310;55.586;12.286;2023-05-07T06:04:08;102765.56;;;19.25
34807;BMP280;18310;55.586;12.286;2023-05-07T06:07:11;102761.25;;;19.09
34807;BMP280;18310;55.586;12.286;2023-05-07T06:10:14;102767.97;;;18.92
34807;BMP280;18310;55.586;12.286;2023-05-07T06:13:18;102773.97;;;18.78
34807;BMP280;18310;55.586;12.286;2023-05-07T06:16:22;102770.72;;;18.57
34807;BMP280;18310;55.586;12.286;2023-05-07T06:19:25;102774.03;;;18.47
34807;BMP280;18310;55.586;12.286;2023-05-07T06:22:29;102770.09;;;18.32
34807;BMP280;18310;55.586;12.286;2023-05-07T06:25:32;102780.31;;;18.01
34807;BMP280;18310;55.586;12.286;2023-05-07T06:28:36;102782.28;;;17.88
34807;BMP280;18310;55.586;12.286;2023-05-07T06:31:40;102777.59;;;17.73
34807;BMP280;18310;55.586;12.286;2023-05-07T06:34:44;102769.81;;;17.51
34807;BMP280;18310;55.586;12.286;2023-05-07T06:37:47;102775.75;;;17.37
34807;BMP280;18310;55.586;12.286;2023-05-07T06:40:50;102771.38;;;17.48
34807;BMP280;18310;55.586;12.286;2023-05-07T06:43:55;102776.66;;;17.69
34807;BMP280;18310;55.586;12.286;2023-05-07T06:47:00;102769.16;;;17.54
34807;BMP280;18310;55.586;12.286;2023-05-07T06:50:04;102769.50;;;17.52
34807;BMP280;18310;55.586;12.286;2023-05-07T06:53:07;102779.53;;;17.72
34807;BMP280;18310;55.586;12.286;2023-05-07T06:56:10;102776.06;;;18.19
34807;BMP280;18310;55.586;12.286;2023-05-07T06:59:13;102768.94;;;18.65
34807;BMP280;18310;55.586;12.286;2023-05-07T07:02:18;102786.97;;;19.13
34807;BMP280;18310;55.586;12.286;2023-05-07T07:05:21;102784.09;;;19.44
34807;BMP280;18310;55.586;12.286;2023-05-07T07:08:24;102777.00;;;19.85
34807;BMP280;18310;55.586;12.286;2023-05-07T07:11:27;102785.50;;;20.18
34807;BMP280;18310;55.586;12.286;2023-05-07T07:14:30;102784.38;;;20.45
34807;BMP280;18310;55.586;12.286;2023-05-07T07:17:35;102779.00;;;20.56
34807;BMP280;18310;55.586;12.286;2023-05-07T07:20:38;102767.56;;;20.57
34807;BMP280;18310;55.586;12.286;2023-05-07T07:23:41;102782.97;;;20.55
34807;BMP280;18310;55.586;12.286;2023-05-07T07:26:45;102785.91;;;19.97
34807;BMP280;18310;55.586;12.286;2023-05-07T07:29:48;102780.84;;;19.38
34807;BMP280;18310;55.586;12.286;2023-05-07T07:32:52;102786.25;;;18.96
34807;BMP280;18310;55.586;12.286;2023-05-07T07:35:56;102779.00;;;18.57
34807;BMP280;18310;55.586;12.286;2023-05-07T07:38:59;102771.69;;;18.18
34807;BMP280;18310;55.586;12.286;2023-05-07T07:42:02;102788.31;;;18.06
34807;BMP280;18310;55.586;12.286;2023-05-07T07:45:07;102789.41;;;17.89
34807;BMP280;18310;55.586;12.286;2023-05-07T07:48:11;102787.00;;;17.72
34807;BMP280;18310;55.586;12.286;2023-05-07T07:51:14;102779.56;;;17.60
34807;BMP280;18310;55.586;12.286;2023-05-07T07:54:18;102783.25;;;17.52
34807;BMP280;18310;55.586;12.286;2023-05-07T07:57:21;102778.56;;;17.40
34807;BMP280;18310;55.586;12.286;2023-05-07T08:00:24;102783.22;;;17.24
34807;BMP280;18310;55.586;12.286;2023-05-07T08:03:29;102774.66;;;17.14
34807;BMP280;18310;55.586;12.286;2023-05-07T08:06:34;102790.00;;;17.15
34807;BMP280;18310;55.586;12.286;2023-05-07T08:09:38;102783.34;;;17.16
34807;BMP280;18310;55.586;12.286;2023-05-07T08:12:41;102800.00;;;17.19
34807;BMP280;18310;55.586;12.286;2023-05-07T08:15:44;102789.41;;;17.21
34807;BMP280;18310;55.586;12.286;2023-05-07T08:18:48;102787.13;;;17.23
34807;BMP280;18310;55.586;12.286;2023-05-07T08:21:52;102793.31;;;17.20
34807;BMP280;18310;55.586;12.286;2023-05-07T08:25:15;102796.66;;;17.26
34807;BMP280;18310;55.586;12.286;2023-05-07T08:28:18;102800.53;;;17.37
34807;BMP280;18310;55.586;12.286;2023-05-07T08:32:27;102800.47;;;17.49
34807;BMP280;18310;55.586;12.286;2023-05-07T08:35:30;102794.19;;;17.49
34807;BMP280;18310;55.586;12.286;2023-05-07T08:38:33;102802.97;;;17.54
34807;BMP280;18310;55.586;12.286;2023-05-07T08:41:36;102801.81;;;17.67
34807;BMP280;18310;55.586;12.286;2023-05-07T08:44:39;102807.25;;;17.79
34807;BMP280;18310;55.586;12.286;2023-05-07T08:47:47;102811.22;;;17.94
34807;BMP280;18310;55.586;12.286;2023-05-07T08:50:54;102808.66;;;18.01
34807;BMP280;18310;55.586;12.286;2023-05-07T08:53:58;102811.06;;;18.03
34807;BMP280;18310;55.586;12.286;2023-05-07T08:57:02;102817.09;;;18.08
34807;BMP280;18310;55.586;12.286;2023-05-07T09:00:06;102816.53;;;18.15
34807;BMP280;18310;55.586;12.286;2023-05-07T09:03:11;102813.59;;;18.23
34807;BMP280;18310;55.586;12.286;2023-05-07T09:06:15;102808.88;;;18.24
34807;BMP280;18310;55.586;12.286;2023-05-07T09:09:18;102802.66;;;18.27
34807;BMP280;18310;55.586;12.286;2023-05-07T09:12:21;102808.78;;;18.36
34807;BMP280;18310;55.586;12.286;2023-05-07T09:15:47;102811.38;;;18.44
34807;BMP280;18310;55.586;12.286;2023-05-07T09:18:51;102810.31;;;18.49
34807;BMP280;18310;55.586;12.286;2023-05-07T09:21:58;102814.13;;;18.44
34807;BMP280;18310;55.586;12.286;2023-05-07T09:25:03;102812.72;;;18.35
34807;BMP280;18310;55.586;12.286;2023-05-07T09:28:06;102812.06;;;18.26
34807;BMP280;18310;55.586;12.286;2023-05-07T09:31:13;102813.06;;;18.18
34807;BMP280;18310;55.586;12.286;2023-05-07T09:34:16;102802.91;;;18.06
34807;BMP280;18310;55.586;12.286;2023-05-07T09:37:19;102819.97;;;18.12
34807;BMP280;18310;55.586;12.286;2023-05-07T09:40:23;102821.31;;;18.18
34807;BMP280;18310;55.586;12.286;2023-05-07T09:43:31;102815.44;;;18.19
34807;BMP280;18310;55.586;12.286;2023-05-07T09:46:38;102825.97;;;18.29
34807;BMP280;18310;55.586;12.286;2023-05-07T09:49:44;102816.34;;;18.23
34807;BMP280;18310;55.586;12.286;2023-05-07T09:52:49;102829.66;;;18.21
34807;BMP280;18310;55.586;12.286;2023-05-07T09:55:52;102825.59;;;18.15
34807;BMP280;18310;55.586;12.286;2023-05-07T09:58:58;102825.84;;;18.10
34807;BMP280;18310;55.586;12.286;2023-05-07T10:02:04;102819.19;;;18.11
34807;BMP280;18310;55.586;12.286;2023-05-07T10:05:08;102826.47;;;18.19
34807;BMP280;18310;55.586;12.286;2023-05-07T10:08:12;102815.09;;;18.21
34807;BMP280;18310;55.586;12.286;2023-05-07T10:11:19;102827.38;;;18.23
34807;BMP280;18310;55.586;12.286;2023-05-07T10:14:22;102829.44;;;18.26
34807;BMP280;18310;55.586;12.286;2023-05-07T10:17:27;102831.91;;;18.31
34807;BMP280;18310;55.586;12.286;2023-05-07T10:20:31;102820.81;;;18.28
34807;BMP280;18310;55.586;12.286;2023-05-07T10:23:35;102832.88;;;18.23
34807;BMP280;18310;55.586;12.286;2023-05-07T10:26:38;102829.44;;;18.26
34807;BMP280;18310;55.586;12.286;2023-05-07T10:29:49;102839.00;;;18.17
34807;BMP280;18310;55.586;12.286;2023-05-07T10:32:56;102820.59;;;18.05
34807;BMP280;18310;55.586;12.286;2023-05-07T10:36:07;102829.81;;;17.97
34807;BMP280;18310;55.586;12.286;2023-05-07T10:39:11;102838.69;;;17.90
34807;BMP280;18310;55.586;12.286;2023-05-07T10:42:14;102859.00;;;17.86
34807;BMP280;18310;55.586;12.286;2023-05-07T10:45:18;102845.41;;;17.77
34807;BMP280;18310;55.586;12.286;2023-05-07T10:48:23;102851.25;;;17.76
34807;BMP280;18310;55.586;12.286;2023-05-07T10:51:32;102848.97;;;17.78
34807;BMP280;18310;55.586;12.286;2023-05-07T10:54:35;102842.44;;;17.70
34807;BMP280;18310;55.586;12.286;2023-05-07T10:57:38;102845.19;;;17.70
34807;BMP280;18310;55.586;12.286;2023-05-07T11:00:42;102850.22;;;17.68
34807;BMP280;18310;55.586;12.286;2023-05-07T11:07:39;102840.59;;;17.62
34807;BMP280;18310;55.586;12.286;2023-05-07T11:10:50;102853.34;;;17.67
34807;BMP280;18310;55.586;12.286;2023-05-07T11:13:53;102840.38;;;17.67
34807;BMP280;18310;55.586;12.286;2023-05-07T11:17:02;102835.69;;;17.68
34807;BMP280;18310;55.586;12.286;2023-05-07T11:20:05;102830.34;;;17.75
34807;BMP280;18310;55.586;12.286;2023-05-07T11:26:53;102828.16;;;17.80
34807;BMP280;18310;55.586;12.286;2023-05-07T11:29:56;102840.16;;;17.88
34807;BMP280;18310;55.586;12.286;2023-05-07T11:32:59;102830.84;;;17.92
34807;BMP280;18310;55.586;12.286;2023-05-07T11:36:04;102839.78;;;18.02
34807;BMP280;18310;55.586;12.286;2023-05-07T11:39:27;102835.19;;;18.06
34807;BMP280;18310;55.586;12.286;2023-05-07T11:42:31;102827.72;;;18.06
34807;BMP280;18310;55.586;12.286;2023-05-07T11:45:34;102825.13;;;18.13
34807;BMP280;18310;55.586;12.286;2023-05-07T11:48:38;102827.66;;;18.18
34807;BMP280;18310;55.586;12.286;2023-05-07T11:51:41;102843.91;;;18.23
34807;BMP280;18310;55.586;12.286;2023-05-07T11:54:50;102830.84;;;18.20
34807;BMP280;18310;55.586;12.286;2023-05-07T11:57:53;102834.84;;;18.23
34807;BMP280;18310;55.586;12.286;2023-05-07T12:00:56;102829.09;;;18.28
34807;BMP280;18310;55.586;12.286;2023-05-07T12:04:03;102833.09;;;18.30
34807;BMP280;18310;55.586;12.286;2023-05-07T12:07:11;102807.97;;;18.20
34807;BMP280;18310;55.586;12.286;2023-05-07T12:10:16;102828.81;;;18.33
34807;BMP280;18310;55.586;12.286;2023-05-07T12:13:23;102829.28;;;18.35
34807;BMP280;18310;55.586;12.286;2023-05-07T12:16:27;102828.00;;;18.32
34807;BMP280;18310;55.586;12.286;2023-05-07T12:19:30;102826.16;;;18.36
34807;BMP280;18310;55.586;12.286;2023-05-07T12:22:57;102818.88;;;18.44
34807;BMP280;18310;55.586;12.286;2023-05-07T12:26:00;102832.03;;;18.51
34807;BMP280;18310;55.586;12.286;2023-05-07T12:29:07;102824.28;;;18.56
34807;BMP280;18310;55.586;12.286;2023-05-07T12:32:13;102827.59;;;18.62
34807;BMP280;18310;55.586;12.286;2023-05-07T12:35:17;102830.78;;;18.64
34807;BMP280;18310;55.586;12.286;2023-05-07T12:38:22;102835.94;;;18.65
34807;BMP280;18310;55.586;12.286;2023-05-07T12:41:25;102836.31;;;18.64
34807;BMP280;18310;55.586;12.286;2023-05-07T12:44:32;102831.75;;;18.56
34807;BMP280;18310;55.586;12.286;2023-05-07T12:47:35;102829.44;;;18.42
34807;BMP280;18310;55.586;12.286;2023-05-07T12:50:38;102833.09;;;18.46
34807;BMP280;18310;55.586;12.286;2023-05-07T12:53:43;102839.69;;;18.41
34807;BMP280;18310;55.586;12.286;2023-05-07T12:56:46;102847.16;;;18.41
34807;BMP280;18310;55.586;12.286;2023-05-07T12:59:49;102845.22;;;18.41
34807;BMP280;18310;55.586;12.286;2023-05-07T13:02:53;102829.09;;;18.43
34807;BMP280;18310;55.586;12.286;2023-05-07T13:05:58;102834.59;;;18.43
34807;BMP280;18310;55.586;12.286;2023-05-07T13:09:04;102830.78;;;18.48
34807;BMP280;18310;55.586;12.286;2023-05-07T13:12:07;102825.03;;;18.53
34807;BMP280;18310;55.586;12.286;2023-05-07T13:15:10;102833.03;;;18.58
34807;BMP280;18310;55.586;12.286;2023-05-07T13:18:14;102813.72;;;18.58
34807;BMP280;18310;55.586;12.286;2023-05-07T13:21:17;102803.91;;;18.45
34807;BMP280;18310;55.586;12.286;2023-05-07T13:24:22;102828.53;;;18.54
34807;BMP280;18310;55.586;12.286;2023-05-07T13:27:25;102824.28;;;18.56
34807;BMP280;18310;55.586;12.286;2023-05-07T13:30:28;102826.31;;;18.59
34807;BMP280;18310;55.586;12.286;2023-05-07T13:33:31;102816.09;;;18.60
34807;BMP280;18310;55.586;12.286;2023-05-07T13:36:34;102831.66;;;18.68
34807;BMP280;18310;55.586;12.286;2023-05-07T13:39:40;102822.69;;;18.71
34807;BMP280;18310;55.586;12.286;2023-05-07T13:42:43;102832.13;;;18.70
34807;BMP280;18310;55.586;12.286;2023-05-07T13:45:46;102827.06;;;18.72
34807;BMP280;18310;55.586;12.286;2023-05-07T13:48:49;102832.13;;;18.70
34807;BMP280;18310;55.586;12.286;2023-05-07T13:51:53;102823.75;;;18.66
34807;BMP280;18310;55.586;12.286;2023-05-07T13:54:58;102827.66;;;18.65
34807;BMP280;18310;55.586;12.286;2023-05-07T13:58:02;102831.97;;;18.63
34807;BMP280;18310;55.586;12.286;2023-05-07T14:01:08;102829.47;;;18.58
34807;BMP280;18310;55.586;12.286;2023-05-07T14:04:11;102838.88;;;18.57
34807;BMP280;18310;55.586;12.286;2023-05-07T14:07:14;102822.66;;;18.55
34807;BMP280;18310;55.586;12.286;2023-05-07T14:10:19;102829.81;;;18.56
34807;BMP280;18310;55.586;12.286;2023-05-07T14:13:22;102825.44;;;18.55
34807;BMP280;18310;55.586;12.286;2023-05-07T14:16:26;102816.75;;;18.53
34807;BMP280;18310;55.586;12.286;2023-05-07T14:19:29;102813.44;;;18.48
34807;BMP280;18310;55.586;12.286;2023-05-07T14:22:34;102822.84;;;18.46
34807;BMP280;18310;55.586;12.286;2023-05-07T14:25:39;102817.63;;;18.41
34807;BMP280;18310;55.586;12.286;2023-05-07T14:28:42;102814.22;;;18.32
34807;BMP280;18310;55.586;12.286;2023-05-07T14:31:48;102817.31;;;18.31
34807;BMP280;18310;55.586;12.286;2023-05-07T14:34:51;102811.13;;;18.34
34807;BMP280;18310;55.586;12.286;2023-05-07T14:37:54;102810.06;;;18.38
34807;BMP280;18310;55.586;12.286;2023-05-07T14:40:59;102808.53;;;18.41
34807;BMP280;18310;55.586;12.286;2023-05-07T14:44:02;102815.28;;;18.43
34807;BMP280;18310;55.586;12.286;2023-05-07T14:47:06;102820.44;;;18.45
34807;BMP280;18310;55.586;12.286;2023-05-07T14:50:09;102813.88;;;18.50
34807;BMP280;18310;55.586;12.286;2023-05-07T14:53:12;102819.03;;;18.51
34807;BMP280;18310;55.586;12.286;2023-05-07T14:56:17;102811.56;;;18.52
34807;BMP280;18310;55.586;12.286;2023-05-07T14:59:20;102818.69;;;18.53
34807;BMP280;18310;55.586;12.286;2023-05-07T15:02:24;102823.81;;;18.54
34807;BMP280;18310;55.586;12.286;2023-05-07T15:05:27;102821.47;;;18.53
34807;BMP280;18310;55.586;12.286;2023-05-07T15:08:31;102821.00;;;18.51
34807;BMP280;18310;55.586;12.286;2023-05-07T15:11:35;102828.84;;;18.49
34807;BMP280;18310;55.586;12.286;2023-05-07T15:14:39;102826.59;;;18.38
34807;BMP280;18310;55.586;12.286;2023-05-07T15:17:42;102828.81;;;18.33
34807;BMP280;18310;55.586;12.286;2023-05-07T15:20:45;102820.47;;;18.29
34807;BMP280;18310;55.586;12.286;2023-05-07T15:23:48;102821.88;;;18.23
34807;BMP280;18310;55.586;12.286;2023-05-07T15:26:53;102829.66;;;18.21
34807;BMP280;18310;55.586;12.286;2023-05-07T15:29:56;102832.69;;;18.16
34807;BMP280;18310;55.586;12.286;2023-05-07T15:33:01;102832.06;;;18.07
34807;BMP280;18310;55.586;12.286;2023-05-07T15:36:05;102831.97;;;18.04
34807;BMP280;18310;55.586;12.286;2023-05-07T15:39:08;102835.75;;;17.99
34807;BMP280;18310;55.586;12.286;2023-05-07T15:42:13;102829.81;;;17.97
34807;BMP280;18310;55.586;12.286;2023-05-07T15:45:16;102830.31;;;17.87
34807;BMP280;18310;55.586;12.286;2023-05-07T15:48:19;102830.75;;;17.89
34807;BMP280;18310;55.586;12.286;2023-05-07T15:51:22;102830.66;;;17.85
34807;BMP280;18310;55.586;12.286;2023-05-07T15:54:25;102819.91;;;17.80
34807;BMP280;18310;55.586;12.286;2023-05-07T15:57:31;102834.81;;;17.79
34807;BMP280;18310;55.586;12.286;2023-05-07T16:00:34;102820.88;;;17.72
34807;BMP280;18310;55.586;12.286;2023-05-07T16:03:37;102823.38;;;17.65
34807;BMP280;18310;55.586;12.286;2023-05-07T16:06:42;102810.00;;;17.52
34807;BMP280;18310;55.586;12.286;2023-05-07T16:09:48;102816.75;;;17.54
34807;BMP280;18310;55.586;12.286;2023-05-07T16:12:52;102819.16;;;17.56
34807;BMP280;18310;55.586;12.286;2023-05-07T16:15:56;102816.56;;;17.47
34807;BMP280;18310;55.586;12.286;2023-05-07T16:19:00;102838.00;;;17.54
34807;BMP280;18310;55.586;12.286;2023-05-07T16:22:03;102829.59;;;17.50
34807;BMP280;18310;55.586;12.286;2023-05-07T16:25:07;102830.00;;;17.49
34807;BMP280;18310;55.586;12.286;2023-05-07T16:28:12;102829.53;;;17.34
34807;BMP280;18310;55.586;12.286;2023-05-07T16:31:15;102836.00;;;17.38
34807;BMP280;18310;55.586;12.286;2023-05-07T16:34:19;102822.88;;;17.35
34807;BMP280;18310;55.586;12.286;2023-05-07T16:37:23;102827.25;;;17.24
34807;BMP280;18310;55.586;12.286;2023-05-07T16:40:26;102825.06;;;17.30
34807;BMP280;18310;55.586;12.286;2023-05-07T16:43:31;102822.94;;;17.23
34807;BMP280;18310;55.586;12.286;2023-05-07T16:46:34;102813.97;;;17.26
34807;BMP280;18310;55.586;12.286;2023-05-07T16:49:37;102817.75;;;17.22
34807;BMP280;18310;55.586;12.286;2023-05-07T16:52:40;102814.41;;;17.16
34807;BMP280;18310;55.586;12.286;2023-05-07T16:55:44;102818.69;;;17.14
34807;BMP280;18310;55.586;12.286;2023-05-07T16:58:49;102819.38;;;17.11
34807;BMP280;18310;55.586;12.286;2023-05-07T17:01:52;102816.75;;;17.02
34807;BMP280;18310;55.586;12.286;2023-05-07T17:04:57;102831.06;;;17.08
34807;BMP280;18310;55.586;12.286;2023-05-07T17:08:00;102817.97;;;17.05
34807;BMP280;18310;55.586;12.286;2023-05-07T17:11:04;102819.03;;;17.00
34807;BMP280;18310;55.586;12.286;2023-05-07T17:14:08;102822.94;;;16.99
34807;BMP280;18310;55.586;12.286;2023-05-07T17:17:12;102822.34;;;16.93
34807;BMP280;18310;55.586;12.286;2023-05-07T17:20:15;102823.38;;;16.89